sensor_id;sensor_type;location;lat;lon;timestamp;P1;durP1;ratioP1;P2;durP2;ratioP2
8552;SDS011;73833;51.014;16.950;2023-11-21T00:00:36;5.95;;;2.45;;
8552;SDS011;73833;51.014;16.950;2023-11-21T00:03:01;3.78;;;2.80;;
8552;SDS011;73833;51.014;16.950;2023-11-21T00:05:27;3.13;;;2.45;;
8552;SDS011;73833;51.014;16.950;2023-11-21T00:07:52;3.20;;;2.53;;
8552;SDS011;73833;51.014;16.950;2023-11-21T00:10:18;2.95;;;2.65;;
8552;SDS011;73833;51.014;16.950;2023-11-21T00:12:43;2.85;;;2.45;;
8552;SDS011;73833;51.014;16.950;2023-11-21T00:15:09;4.38;;;2.20;;
8552;SDS011;73833;51.014;16.950;2023-11-21T00:17:37;3.83;;;2.45;;
8552;SDS011;73833;51.014;16.950;2023-11-21T00:20:03;2.72;;;2.30;;
8552;SDS011;73833;51.014;16.950;2023-11-21T00:22:31;3.75;;;2.67;;
8552;SDS011;73833;51.014;16.950;2023-11-21T00:24:57;2.40;;;2.10;;
8552;SDS011;73833;51.014;16.950;2023-11-21T00:27:22;3.92;;;2.75;;
8552;SDS011;73833;51.014;16.950;2023-11-21T00:29:47;2.40;;;2.20;;
8552;SDS011;73833;51.014;16.950;2023-11-21T00:32:13;2.83;;;2.17;;
8552;SDS011;73833;51.014;16.950;2023-11-21T00:34:38;2.47;;;2.28;;
8552;SDS011;73833;51.014;16.950;2023-11-21T00:37:03;3.47;;;2.25;;
8552;SDS011;73833;51.014;16.950;2023-11-21T00:39:29;2.30;;;2.08;;
8552;SDS011;73833;51.014;16.950;2023-11-21T00:41:54;3.47;;;2.35;;
8552;SDS011;73833;51.014;16.950;2023-11-21T00:44:19;2.40;;;2.20;;
8552;SDS011;73833;51.014;16.950;2023-11-21T00:46:44;2.67;;;2.10;;
8552;SDS011;73833;51.014;16.950;2023-11-21T00:49:10;3.97;;;2.22;;
8552;SDS011;73833;51.014;16.950;2023-11-21T00:51:35;2.33;;;2.13;;
8552;SDS011;73833;51.014;16.950;2023-11-21T00:54:00;3.70;;;2.50;;
8552;SDS011;73833;51.014;16.950;2023-11-21T00:56:26;2.53;;;2.00;;
8552;SDS011;73833;51.014;16.950;2023-11-21T00:58:51;2.58;;;2.33;;
8552;SDS011;73833;51.014;16.950;2023-11-21T01:01:18;5.15;;;2.28;;
8552;SDS011;73833;51.014;16.950;2023-11-21T01:03:43;2.38;;;2.15;;
8552;SDS011;73833;51.014;16.950;2023-11-21T01:06:08;2.15;;;1.95;;
8552;SDS011;73833;51.014;16.950;2023-11-21T01:08:34;2.30;;;2.10;;
8552;SDS011;73833;51.014;16.950;2023-11-21T01:10:59;3.33;;;2.22;;
8552;SDS011;73833;51.014;16.950;2023-11-21T01:13:24;2.38;;;2.17;;
8552;SDS011;73833;51.014;16.950;2023-11-21T01:15:54;3.67;;;2.22;;
8552;SDS011;73833;51.014;16.950;2023-11-21T01:18:20;3.55;;;2.67;;
8552;SDS011;73833;51.014;16.950;2023-11-21T01:20:45;2.88;;;2.30;;
8552;SDS011;73833;51.014;16.950;2023-11-21T01:23:12;2.47;;;2.22;;
8552;SDS011;73833;51.014;16.950;2023-11-21T01:25:37;3.78;;;2.67;;
8552;SDS011;73833;51.014;16.950;2023-11-21T01:28:02;2.85;;;2.53;;
8552;SDS011;73833;51.014;16.950;2023-11-21T01:30:27;2.67;;;2.17;;
8552;SDS011;73833;51.014;16.950;2023-11-21T01:32:52;3.58;;;2.20;;
8552;SDS011;73833;51.014;16.950;2023-11-21T01:35:18;2.40;;;2.20;;
8552;SDS011;73833;51.014;16.950;2023-11-21T01:37:44;2.67;;;2.47;;
8552;SDS011;73833;51.014;16.950;2023-11-21T01:40:09;4.70;;;2.70;;
8552;SDS011;73833;51.014;16.950;2023-11-21T01:42:35;4.50;;;2.35;;
8552;SDS011;73833;51.014;16.950;2023-11-21T01:45:01;2.90;;;2.45;;
8552;SDS011;73833;51.014;16.950;2023-11-21T01:47:30;2.33;;;2.08;;
8552;SDS011;73833;51.014;16.950;2023-11-21T01:49:56;3.90;;;2.25;;
8552;SDS011;73833;51.014;16.950;2023-11-21T01:52:21;3.13;;;2.45;;
8552;SDS011;73833;51.014;16.950;2023-11-21T01:54:46;2.97;;;2.20;;
8552;SDS011;73833;51.014;16.950;2023-11-21T01:57:12;3.40;;;2.20;;
8552;SDS011;73833;51.014;16.950;2023-11-21T01:59:38;2.33;;;2.10;;
8552;SDS011;73833;51.014;16.950;2023-11-21T02:02:05;3.42;;;2.20;;
8552;SDS011;73833;51.014;16.950;2023-11-21T02:04:33;2.95;;;2.22;;
8552;SDS011;73833;51.014;16.950;2023-11-21T02:06:59;2.22;;;2.10;;
8552;SDS011;73833;51.014;16.950;2023-11-21T02:09:27;2.92;;;2.40;;
8552;SDS011;73833;51.014;16.950;2023-11-21T02:11:53;2.75;;;2.45;;
8552;SDS011;73833;51.014;16.950;2023-11-21T02:14:19;2.50;;;2.05;;
8552;SDS011;73833;51.014;16.950;2023-11-21T02:16:47;4.88;;;1.98;;
8552;SDS011;73833;51.014;16.950;2023-11-21T02:19:14;2.75;;;2.25;;
8552;SDS011;73833;51.014;16.950;2023-11-21T02:21:43;3.60;;;2.50;;
8552;SDS011;73833;51.014;16.950;2023-11-21T02:24:10;2.25;;;2.05;;
8552;SDS011;73833;51.014;16.950;2023-11-21T02:26:35;2.45;;;2.25;;
8552;SDS011;73833;51.014;16.950;2023-11-21T02:29:00;3.42;;;1.98;;
8552;SDS011;73833;51.014;16.950;2023-11-21T02:31:26;3.38;;;2.28;;
8552;SDS011;73833;51.014;16.950;2023-11-21T02:33:52;3.63;;;2.25;;
8552;SDS011;73833;51.014;16.950;2023-11-21T02:36:17;2.60;;;2.22;;
8552;SDS011;73833;51.014;16.950;2023-11-21T02:38:43;2.65;;;2.25;;
8552;SDS011;73833;51.014;16.950;2023-11-21T02:41:08;3.53;;;2.15;;
8552;SDS011;73833;51.014;16.950;2023-11-21T02:43:33;4.30;;;2.40;;
8552;SDS011;73833;51.014;16.950;2023-11-21T02:45:59;3.65;;;2.17;;
8552;SDS011;73833;51.014;16.950;2023-11-21T02:48:24;2.30;;;2.10;;
8552;SDS011;73833;51.014;16.950;2023-11-21T02:50:50;3.88;;;2.60;;
8552;SDS011;73833;51.014;16.950;2023-11-21T02:53:15;4.72;;;2.10;;
8552;SDS011;73833;51.014;16.950;2023-11-21T02:55:41;4.97;;;2.28;;
8552;SDS011;73833;51.014;16.950;2023-11-21T02:58:06;2.05;;;1.95;;
8552;SDS011;73833;51.014;16.950;2023-11-21T03:00:31;4.38;;;2.20;;
8552;SDS011;73833;51.014;16.950;2023-11-21T03:02:57;3.05;;;2.75;;
8552;SDS011;73833;51.014;16.950;2023-11-21T03:05:22;2.47;;;2.20;;
8552;SDS011;73833;51.014;16.950;2023-11-21T03:07:47;2.28;;;2.05;;
8552;SDS011;73833;51.014;16.950;2023-11-21T03:10:12;2.53;;;2.33;;
8552;SDS011;73833;51.014;16.950;2023-11-21T03:12:38;2.47;;;2.25;;
8552;SDS011;73833;51.014;16.950;2023-11-21T03:15:04;5.30;;;2.47;;
8552;SDS011;73833;51.014;16.950;2023-11-21T03:17:30;3.15;;;2.28;;
8552;SDS011;73833;51.014;16.950;2023-11-21T03:19:56;3.95;;;2.40;;
8552;SDS011;73833;51.014;16.950;2023-11-21T03:22:22;2.90;;;2.15;;
8552;SDS011;73833;51.014;16.950;2023-11-21T03:24:47;2.58;;;2.20;;
8552;SDS011;73833;51.014;16.950;2023-11-21T03:27:12;2.72;;;2.53;;
8552;SDS011;73833;51.014;16.950;2023-11-21T03:29:38;2.50;;;2.20;;
8552;SDS011;73833;51.014;16.950;2023-11-21T03:32:04;2.97;;;2.30;;
8552;SDS011;73833;51.014;16.950;2023-11-21T03:34:29;2.20;;;2.00;;
8552;SDS011;73833;51.014;16.950;2023-11-21T03:36:55;3.47;;;2.20;;
8552;SDS011;73833;51.014;16.950;2023-11-21T03:39:20;2.50;;;2.28;;
8552;SDS011;73833;51.014;16.950;2023-11-21T03:41:46;2.50;;;2.30;;
8552;SDS011;73833;51.014;16.950;2023-11-21T03:44:11;1.83;;;1.73;;
8552;SDS011;73833;51.014;16.950;2023-11-21T03:46:36;2.78;;;2.47;;
8552;SDS011;73833;51.014;16.950;2023-11-21T03:49:02;4.53;;;2.30;;
8552;SDS011;73833;51.014;16.950;2023-11-21T03:51:27;3.97;;;1.95;;
8552;SDS011;73833;51.014;16.950;2023-11-21T03:53:52;2.47;;;1.90;;
8552;SDS011;73833;51.014;16.950;2023-11-21T03:56:18;4.28;;;2.92;;
8552;SDS011;73833;51.014;16.950;2023-11-21T03:58:43;2.30;;;2.20;;
8552;SDS011;73833;51.014;16.950;2023-11-21T04:01:09;3.00;;;2.35;;
8552;SDS011;73833;51.014;16.950;2023-11-21T04:03:34;2.30;;;2.13;;
8552;SDS011;73833;51.014;16.950;2023-11-21T04:05:59;2.60;;;2.20;;
8552;SDS011;73833;51.014;16.950;2023-11-21T04:08:26;2.53;;;2.35;;
8552;SDS011;73833;51.014;16.950;2023-11-21T04:10:51;4.07;;;2.28;;
8552;SDS011;73833;51.014;16.950;2023-11-21T04:13:18;2.40;;;2.20;;
8552;SDS011;73833;51.014;16.950;2023-11-21T04:15:43;2.30;;;2.10;;
8552;SDS011;73833;51.014;16.950;2023-11-21T04:18:08;3.70;;;2.53;;
8552;SDS011;73833;51.014;16.950;2023-11-21T04:20:34;3.33;;;2.28;;
8552;SDS011;73833;51.014;16.950;2023-11-21T04:22:59;2.63;;;2.25;;
8552;SDS011;73833;51.014;16.950;2023-11-21T04:25:24;2.22;;;2.13;;
8552;SDS011;73833;51.014;16.950;2023-11-21T04:27:50;2.33;;;2.20;;
8552;SDS011;73833;51.014;16.950;2023-11-21T04:30:15;2.45;;;2.25;;
8552;SDS011;73833;51.014;16.950;2023-11-21T04:32:40;2.97;;;2.00;;
8552;SDS011;73833;51.014;16.950;2023-11-21T04:35:07;2.35;;;2.15;;
8552;SDS011;73833;51.014;16.950;2023-11-21T04:37:33;2.25;;;2.13;;
8552;SDS011;73833;51.014;16.950;2023-11-21T04:39:58;2.90;;;2.35;;
8552;SDS011;73833;51.014;16.950;2023-11-21T04:42:24;2.70;;;2.00;;
8552;SDS011;73833;51.014;16.950;2023-11-21T04:44:49;2.78;;;2.42;;
8552;SDS011;73833;51.014;16.950;2023-11-21T04:47:14;3.78;;;2.35;;
8552;SDS011;73833;51.014;16.950;2023-11-21T04:49:43;3.22;;;2.35;;
8552;SDS011;73833;51.014;16.950;2023-11-21T04:52:08;2.65;;;2.22;;
8552;SDS011;73833;51.014;16.950;2023-11-21T04:54:34;2.33;;;2.17;;
8552;SDS011;73833;51.014;16.950;2023-11-21T04:56:59;2.60;;;2.40;;
8552;SDS011;73833;51.014;16.950;2023-11-21T04:59:25;3.30;;;2.13;;
8552;SDS011;73833;51.014;16.950;2023-11-21T05:01:52;2.35;;;2.15;;
8552;SDS011;73833;51.014;16.950;2023-11-21T05:04:17;2.53;;;2.33;;
8552;SDS011;73833;51.014;16.950;2023-11-21T05:06:42;2.30;;;2.08;;
8552;SDS011;73833;51.014;16.950;2023-11-21T05:09:09;4.97;;;2.60;;
8552;SDS011;73833;51.014;16.950;2023-11-21T05:11:37;3.90;;;2.20;;
8552;SDS011;73833;51.014;16.950;2023-11-21T05:14:02;2.72;;;2.20;;
8552;SDS011;73833;51.014;16.950;2023-11-21T05:16:29;3.05;;;2.20;;
8552;SDS011;73833;51.014;16.950;2023-11-21T05:18:54;3.95;;;2.10;;
8552;SDS011;73833;51.014;16.950;2023-11-21T05:21:25;2.90;;;2.22;;
8552;SDS011;73833;51.014;16.950;2023-11-21T05:23:50;2.17;;;2.08;;
8552;SDS011;73833;51.014;16.950;2023-11-21T05:26:15;2.67;;;2.20;;
8552;SDS011;73833;51.014;16.950;2023-11-21T05:28:40;3.70;;;2.20;;
8552;SDS011;73833;51.014;16.950;2023-11-21T05:31:06;3.25;;;2.03;;
8552;SDS011;73833;51.014;16.950;2023-11-21T05:33:31;3.15;;;2.25;;
8552;SDS011;73833;51.014;16.950;2023-11-21T05:35:58;3.42;;;2.17;;
8552;SDS011;73833;51.014;16.950;2023-11-21T05:38:23;1.90;;;1.80;;
8552;SDS011;73833;51.014;16.950;2023-11-21T05:40:49;2.08;;;1.88;;
8552;SDS011;73833;51.014;16.950;2023-11-21T05:43:14;2.17;;;1.90;;
8552;SDS011;73833;51.014;16.950;2023-11-21T05:45:40;2.45;;;2.20;;
8552;SDS011;73833;51.014;16.950;2023-11-21T05:48:05;2.38;;;2.10;;
8552;SDS011;73833;51.014;16.950;2023-11-21T05:50:31;2.53;;;2.25;;
8552;SDS011;73833;51.014;16.950;2023-11-21T05:52:57;2.72;;;2.25;;
8552;SDS011;73833;51.014;16.950;2023-11-21T05:55:24;2.70;;;2.08;;
8552;SDS011;73833;51.014;16.950;2023-11-21T05:57:51;2.30;;;2.13;;
8552;SDS011;73833;51.014;16.950;2023-11-21T06:00:16;2.72;;;2.28;;
8552;SDS011;73833;51.014;16.950;2023-11-21T06:02:50;3.97;;;2.00;;
8552;SDS011;73833;51.014;16.950;2023-11-21T06:05:18;2.35;;;2.10;;
8552;SDS011;73833;51.014;16.950;2023-11-21T06:07:43;2.55;;;2.08;;
8552;SDS011;73833;51.014;16.950;2023-11-21T06:10:10;2.55;;;2.35;;
8552;SDS011;73833;51.014;16.950;2023-11-21T06:12:36;2.65;;;2.28;;
8552;SDS011;73833;51.014;16.950;2023-11-21T06:15:04;2.30;;;2.10;;
8552;SDS011;73833;51.014;16.950;2023-11-21T06:17:33;3.88;;;2.50;;
8552;SDS011;73833;51.014;16.950;2023-11-21T06:20:01;2.67;;;2.47;;
8552;SDS011;73833;51.014;16.950;2023-11-21T06:22:28;4.05;;;2.60;;
8552;SDS011;73833;51.014;16.950;2023-11-21T06:24:55;9.00;;;3.78;;
8552;SDS011;73833;51.014;16.950;2023-11-21T06:27:20;15.52;;;4.88;;
8552;SDS011;73833;51.014;16.950;2023-11-21T06:29:46;8.77;;;3.47;;
8552;SDS011;73833;51.014;16.950;2023-11-21T06:32:12;20.58;;;6.03;;
8552;SDS011;73833;51.014;16.950;2023-11-21T06:34:37;16.98;;;5.28;;
8552;SDS011;73833;51.014;16.950;2023-11-21T06:37:02;25.05;;;6.13;;
8552;SDS011;73833;51.014;16.950;2023-11-21T06:39:27;14.52;;;5.95;;
8552;SDS011;73833;51.014;16.950;2023-11-21T06:41:52;18.52;;;5.32;;
8552;SDS011;73833;51.014;16.950;2023-11-21T06:44:18;12.52;;;5.00;;
8552;SDS011;73833;51.014;16.950;2023-11-21T06:46:44;13.73;;;4.93;;
8552;SDS011;73833;51.014;16.950;2023-11-21T06:49:09;13.50;;;4.97;;
8552;SDS011;73833;51.014;16.950;2023-11-21T06:51:36;13.98;;;4.63;;
8552;SDS011;73833;51.014;16.950;2023-11-21T06:54:01;10.27;;;4.80;;
8552;SDS011;73833;51.014;16.950;2023-11-21T06:56:26;12.35;;;4.30;;
8552;SDS011;73833;51.014;16.950;2023-11-21T06:58:51;14.40;;;4.38;;
8552;SDS011;73833;51.014;16.950;2023-11-21T07:01:19;13.82;;;4.93;;
8552;SDS011;73833;51.014;16.950;2023-11-21T07:03:45;17.50;;;6.25;;
8552;SDS011;73833;51.014;16.950;2023-11-21T07:06:10;21.20;;;6.95;;
8552;SDS011;73833;51.014;16.950;2023-11-21T07:08:36;16.02;;;6.32;;
8552;SDS011;73833;51.014;16.950;2023-11-21T07:11:01;22.70;;;7.07;;
8552;SDS011;73833;51.014;16.950;2023-11-21T07:13:28;17.10;;;6.40;;
8552;SDS011;73833;51.014;16.950;2023-11-21T07:15:53;17.95;;;6.03;;
8552;SDS011;73833;51.014;16.950;2023-11-21T07:18:19;16.08;;;5.22;;
8552;SDS011;73833;51.014;16.950;2023-11-21T07:20:44;13.23;;;5.55;;
8552;SDS011;73833;51.014;16.950;2023-11-21T07:23:09;14.50;;;5.15;;
8552;SDS011;73833;51.014;16.950;2023-11-21T07:25:35;18.38;;;5.30;;
8552;SDS011;73833;51.014;16.950;2023-11-21T07:28:01;20.80;;;6.30;;
8552;SDS011;73833;51.014;16.950;2023-11-21T07:30:26;22.17;;;7.32;;
8552;SDS011;73833;51.014;16.950;2023-11-21T07:32:52;22.80;;;8.65;;
8552;SDS011;73833;51.014;16.950;2023-11-21T07:35:17;24.05;;;8.50;;
8552;SDS011;73833;51.014;16.950;2023-11-21T07:37:42;18.40;;;8.02;;
8552;SDS011;73833;51.014;16.950;2023-11-21T07:40:08;15.57;;;7.45;;
8552;SDS011;73833;51.014;16.950;2023-11-21T07:42:34;19.52;;;7.50;;
8552;SDS011;73833;51.014;16.950;2023-11-21T07:44:59;22.63;;;7.50;;
8552;SDS011;73833;51.014;16.950;2023-11-21T07:47:24;14.85;;;6.60;;
8552;SDS011;73833;51.014;16.950;2023-11-21T07:49:52;24.65;;;7.20;;
8552;SDS011;73833;51.014;16.950;2023-11-21T07:52:17;18.55;;;7.55;;
8552;SDS011;73833;51.014;16.950;2023-11-21T07:54:42;18.05;;;6.80;;
8552;SDS011;73833;51.014;16.950;2023-11-21T07:57:08;19.58;;;6.65;;
8552;SDS011;73833;51.014;16.950;2023-11-21T07:59:33;17.80;;;6.47;;
8552;SDS011;73833;51.014;16.950;2023-11-21T08:01:58;18.23;;;6.57;;
8552;SDS011;73833;51.014;16.950;2023-11-21T08:04:24;21.17;;;7.50;;
8552;SDS011;73833;51.014;16.950;2023-11-21T08:06:49;16.75;;;7.18;;
8552;SDS011;73833;51.014;16.950;2023-11-21T08:09:14;19.98;;;6.30;;
8552;SDS011;73833;51.014;16.950;2023-11-21T08:11:42;17.35;;;6.65;;
8552;SDS011;73833;51.014;16.950;2023-11-21T08:14:07;17.92;;;6.22;;
8552;SDS011;73833;51.014;16.950;2023-11-21T08:16:32;17.00;;;6.38;;
8552;SDS011;73833;51.014;16.950;2023-11-21T08:18:58;18.38;;;5.72;;
8552;SDS011;73833;51.014;16.950;2023-11-21T08:21:23;13.57;;;5.95;;
8552;SDS011;73833;51.014;16.950;2023-11-21T08:23:49;16.17;;;6.07;;
8552;SDS011;73833;51.014;16.950;2023-11-21T08:26:18;14.95;;;6.07;;
8552;SDS011;73833;51.014;16.950;2023-11-21T08:28:44;13.40;;;5.82;;
8552;SDS011;73833;51.014;16.950;2023-11-21T08:31:09;21.95;;;6.22;;
8552;SDS011;73833;51.014;16.950;2023-11-21T08:33:34;13.13;;;5.78;;
8552;SDS011;73833;51.014;16.950;2023-11-21T08:35:59;10.77;;;5.30;;
8552;SDS011;73833;51.014;16.950;2023-11-21T08:38:26;9.63;;;5.20;;
8552;SDS011;73833;51.014;16.950;2023-11-21T08:40:53;10.75;;;5.28;;
8552;SDS011;73833;51.014;16.950;2023-11-21T08:43:19;10.95;;;5.10;;
8552;SDS011;73833;51.014;16.950;2023-11-21T08:45:45;11.23;;;4.82;;
8552;SDS011;73833;51.014;16.950;2023-11-21T08:48:10;10.45;;;5.38;;
8552;SDS011;73833;51.014;16.950;2023-11-21T08:50:36;12.13;;;5.38;;
8552;SDS011;73833;51.014;16.950;2023-11-21T08:53:01;12.25;;;5.20;;
8552;SDS011;73833;51.014;16.950;2023-11-21T08:55:27;11.18;;;5.25;;
8552;SDS011;73833;51.014;16.950;2023-11-21T08:57:53;9.38;;;4.55;;
8552;SDS011;73833;51.014;16.950;2023-11-21T09:00:18;10.88;;;4.72;;
8552;SDS011;73833;51.014;16.950;2023-11-21T09:02:44;10.70;;;4.93;;
8552;SDS011;73833;51.014;16.950;2023-11-21T09:05:10;16.55;;;5.05;;
8552;SDS011;73833;51.014;16.950;2023-11-21T09:07:36;7.40;;;4.80;;
8552;SDS011;73833;51.014;16.950;2023-11-21T09:10:01;10.73;;;5.25;;
8552;SDS011;73833;51.014;16.950;2023-11-21T09:12:27;9.35;;;4.15;;
8552;SDS011;73833;51.014;16.950;2023-11-21T09:14:52;9.00;;;4.90;;
8552;SDS011;73833;51.014;16.950;2023-11-21T09:17:17;12.98;;;4.90;;
8552;SDS011;73833;51.014;16.950;2023-11-21T09:19:43;7.47;;;4.50;;
8552;SDS011;73833;51.014;16.950;2023-11-21T09:22:12;7.88;;;4.60;;
8552;SDS011;73833;51.014;16.950;2023-11-21T09:24:37;7.35;;;3.97;;
8552;SDS011;73833;51.014;16.950;2023-11-21T09:27:02;9.93;;;4.95;;
8552;SDS011;73833;51.014;16.950;2023-11-21T09:29:28;9.93;;;4.40;;
8552;SDS011;73833;51.014;16.950;2023-11-21T09:31:54;9.38;;;3.88;;
8552;SDS011;73833;51.014;16.950;2023-11-21T09:34:20;8.90;;;4.40;;
8552;SDS011;73833;51.014;16.950;2023-11-21T09:36:45;7.93;;;3.97;;
8552;SDS011;73833;51.014;16.950;2023-11-21T09:39:11;7.50;;;4.07;;
8552;SDS011;73833;51.014;16.950;2023-11-21T09:41:52;6.32;;;4.35;;
8552;SDS011;73833;51.014;16.950;2023-11-21T09:44:23;5.70;;;3.60;;
8552;SDS011;73833;51.014;16.950;2023-11-21T09:46:53;9.07;;;4.40;;
8552;SDS011;73833;51.014;16.950;2023-11-21T09:49:21;6.65;;;3.97;;
8552;SDS011;73833;51.014;16.950;2023-11-21T09:51:50;6.50;;;3.80;;
8552;SDS011;73833;51.014;16.950;2023-11-21T09:54:17;5.55;;;3.88;;
8552;SDS011;73833;51.014;16.950;2023-11-21T09:56:44;10.20;;;3.72;;
8552;SDS011;73833;51.014;16.950;2023-11-21T09:59:11;7.20;;;3.80;;
8552;SDS011;73833;51.014;16.950;2023-11-21T10:01:37;7.65;;;3.92;;
8552;SDS011;73833;51.014;16.950;2023-11-21T10:04:04;6.03;;;4.05;;
8552;SDS011;73833;51.014;16.950;2023-11-21T10:06:30;13.52;;;5.05;;
8552;SDS011;73833;51.014;16.950;2023-11-21T10:08:56;11.13;;;3.55;;
8552;SDS011;73833;51.014;16.950;2023-11-21T10:11:23;12.45;;;3.75;;
8552;SDS011;73833;51.014;16.950;2023-11-21T10:13:49;4.03;;;3.25;;
8552;SDS011;73833;51.014;16.950;2023-11-21T10:16:15;12.30;;;3.72;;
8552;SDS011;73833;51.014;16.950;2023-11-21T10:18:46;7.55;;;3.63;;
8552;SDS011;73833;51.014;16.950;2023-11-21T10:21:11;5.93;;;3.00;;
8552;SDS011;73833;51.014;16.950;2023-11-21T10:23:37;7.47;;;3.72;;
8552;SDS011;73833;51.014;16.950;2023-11-21T10:26:02;6.72;;;3.88;;
8552;SDS011;73833;51.014;16.950;2023-11-21T10:28:28;7.50;;;3.72;;
8552;SDS011;73833;51.014;16.950;2023-11-21T10:30:53;6.90;;;3.70;;
8552;SDS011;73833;51.014;16.950;2023-11-21T10:33:21;4.13;;;3.60;;
8552;SDS011;73833;51.014;16.950;2023-11-21T10:35:51;5.75;;;2.83;;
8552;SDS011;73833;51.014;16.950;2023-11-21T10:38:19;7.82;;;3.58;;
8552;SDS011;73833;51.014;16.950;2023-11-21T10:40:48;7.25;;;3.47;;
8552;SDS011;73833;51.014;16.950;2023-11-21T10:43:14;5.18;;;3.40;;
8552;SDS011;73833;51.014;16.950;2023-11-21T10:45:43;4.85;;;3.05;;
8552;SDS011;73833;51.014;16.950;2023-11-21T10:48:09;8.10;;;3.33;;
8552;SDS011;73833;51.014;16.950;2023-11-21T10:50:40;5.05;;;3.33;;
8552;SDS011;73833;51.014;16.950;2023-11-21T10:53:05;3.92;;;3.08;;
8552;SDS011;73833;51.014;16.950;2023-11-21T10:55:32;5.63;;;3.30;;
8552;SDS011;73833;51.014;16.950;2023-11-21T10:58:00;3.95;;;2.63;;
8552;SDS011;73833;51.014;16.950;2023-11-21T11:00:27;4.95;;;3.30;;
8552;SDS011;73833;51.014;16.950;2023-11-21T11:02:53;6.35;;;3.03;;
8552;SDS011;73833;51.014;16.950;2023-11-21T11:05:30;9.77;;;3.80;;
8552;SDS011;73833;51.014;16.950;2023-11-21T11:10:27;3.35;;;3.05;;
8552;SDS011;73833;51.014;16.950;2023-11-21T11:12:55;5.65;;;3.42;;
8552;SDS011;73833;51.014;16.950;2023-11-21T11:15:22;8.27;;;2.90;;
8552;SDS011;73833;51.014;16.950;2023-11-21T11:17:48;3.22;;;2.92;;
8552;SDS011;73833;51.014;16.950;2023-11-21T11:20:14;5.18;;;3.05;;
8552;SDS011;73833;51.014;16.950;2023-11-21T11:22:48;4.72;;;3.10;;
8552;SDS011;73833;51.014;16.950;2023-11-21T11:33:08;7.28;;;3.55;;
8552;SDS011;73833;51.014;16.950;2023-11-21T11:38:20;3.67;;;2.55;;
8552;SDS011;73833;51.014;16.950;2023-11-21T11:40:46;5.40;;;2.88;;
8552;SDS011;73833;51.014;16.950;2023-11-21T11:43:12;2.97;;;2.75;;
8552;SDS011;73833;51.014;16.950;2023-11-21T11:45:37;3.42;;;2.60;;
8552;SDS011;73833;51.014;16.950;2023-11-21T11:48:10;5.15;;;2.83;;
8552;SDS011;73833;51.014;16.950;2023-11-21T11:50:41;5.25;;;3.15;;
8552;SDS011;73833;51.014;16.950;2023-11-21T11:53:13;2.95;;;2.70;;
8552;SDS011;73833;51.014;16.950;2023-11-21T11:55:39;3.63;;;2.60;;
8552;SDS011;73833;51.014;16.950;2023-11-21T11:58:05;4.20;;;2.83;;
8552;SDS011;73833;51.014;16.950;2023-11-21T12:02:58;6.53;;;2.90;;
8552;SDS011;73833;51.014;16.950;2023-11-21T12:05:28;3.70;;;3.15;;
8552;SDS011;73833;51.014;16.950;2023-11-21T12:07:54;4.47;;;3.03;;
8552;SDS011;73833;51.014;16.950;2023-11-21T12:10:20;3.72;;;3.40;;
8552;SDS011;73833;51.014;16.950;2023-11-21T12:12:48;5.68;;;3.30;;
8552;SDS011;73833;51.014;16.950;2023-11-21T12:15:14;8.82;;;3.40;;
8552;SDS011;73833;51.014;16.950;2023-11-21T12:17:42;5.72;;;3.47;;
8552;SDS011;73833;51.014;16.950;2023-11-21T12:20:08;5.65;;;3.28;;
8552;SDS011;73833;51.014;16.950;2023-11-21T12:22:48;3.83;;;3.45;;
8552;SDS011;73833;51.014;16.950;2023-11-21T12:25:14;4.03;;;3.63;;
8552;SDS011;73833;51.014;16.950;2023-11-21T12:27:41;5.05;;;3.50;;
8552;SDS011;73833;51.014;16.950;2023-11-21T12:30:07;5.18;;;4.20;;
8552;SDS011;73833;51.014;16.950;2023-11-21T12:32:38;6.30;;;3.78;;
8552;SDS011;73833;51.014;16.950;2023-11-21T12:35:03;7.70;;;3.80;;
8552;SDS011;73833;51.014;16.950;2023-11-21T12:37:31;4.93;;;3.70;;
8552;SDS011;73833;51.014;16.950;2023-11-21T12:39:57;5.45;;;3.58;;
8552;SDS011;73833;51.014;16.950;2023-11-21T12:42:23;5.57;;;3.80;;
8552;SDS011;73833;51.014;16.950;2023-11-21T12:44:48;12.25;;;4.40;;
8552;SDS011;73833;51.014;16.950;2023-11-21T12:47:16;7.05;;;4.20;;
8552;SDS011;73833;51.014;16.950;2023-11-21T12:49:41;6.07;;;4.57;;
8552;SDS011;73833;51.014;16.950;2023-11-21T12:52:09;5.93;;;4.15;;
8552;SDS011;73833;51.014;16.950;2023-11-21T12:54:34;4.32;;;3.92;;
8552;SDS011;73833;51.014;16.950;2023-11-21T12:57:00;8.15;;;3.97;;
8552;SDS011;73833;51.014;16.950;2023-11-21T12:59:26;5.28;;;4.78;;
8552;SDS011;73833;51.014;16.950;2023-11-21T13:01:53;4.97;;;4.47;;
8552;SDS011;73833;51.014;16.950;2023-11-21T13:04:29;8.55;;;4.22;;
8552;SDS011;73833;51.014;16.950;2023-11-21T13:06:54;5.07;;;3.92;;
8552;SDS011;73833;51.014;16.950;2023-11-21T13:09:21;6.57;;;5.05;;
8552;SDS011;73833;51.014;16.950;2023-11-21T13:11:46;7.13;;;4.40;;
8552;SDS011;73833;51.014;16.950;2023-11-21T13:14:11;5.47;;;4.45;;
8552;SDS011;73833;51.014;16.950;2023-11-21T13:16:37;7.35;;;5.03;;
8552;SDS011;73833;51.014;16.950;2023-11-21T13:19:04;4.88;;;4.30;;
8552;SDS011;73833;51.014;16.950;2023-11-21T13:21:29;5.38;;;4.57;;
8552;SDS011;73833;51.014;16.950;2023-11-21T13:23:54;6.32;;;4.85;;
8552;SDS011;73833;51.014;16.950;2023-11-21T13:26:21;9.32;;;4.95;;
8552;SDS011;73833;51.014;16.950;2023-11-21T13:28:48;6.40;;;4.68;;
8552;SDS011;73833;51.014;16.950;2023-11-21T13:31:13;5.55;;;4.93;;
8552;SDS011;73833;51.014;16.950;2023-11-21T13:33:52;5.20;;;4.70;;
8552;SDS011;73833;51.014;16.950;2023-11-21T13:36:23;4.55;;;4.03;;
8552;SDS011;73833;51.014;16.950;2023-11-21T13:38:49;5.07;;;4.57;;
8552;SDS011;73833;51.014;16.950;2023-11-21T13:41:15;10.90;;;4.80;;
8552;SDS011;73833;51.014;16.950;2023-11-21T13:43:40;5.57;;;4.90;;
8552;SDS011;73833;51.014;16.950;2023-11-21T13:46:09;5.60;;;4.72;;
8552;SDS011;73833;51.014;16.950;2023-11-21T13:48:41;6.38;;;4.53;;
8552;SDS011;73833;51.014;16.950;2023-11-21T13:51:08;7.25;;;4.53;;
8552;SDS011;73833;51.014;16.950;2023-11-21T13:53:41;12.15;;;4.47;;
8552;SDS011;73833;51.014;16.950;2023-11-21T13:56:07;6.47;;;4.65;;
8552;SDS011;73833;51.014;16.950;2023-11-21T13:58:33;8.93;;;4.35;;
8552;SDS011;73833;51.014;16.950;2023-11-21T14:01:11;4.88;;;4.38;;
8552;SDS011;73833;51.014;16.950;2023-11-21T14:03:58;4.68;;;4.28;;
8552;SDS011;73833;51.014;16.950;2023-11-21T14:06:33;5.85;;;3.63;;
8552;SDS011;73833;51.014;16.950;2023-11-21T14:09:05;4.53;;;4.15;;
8552;SDS011;73833;51.014;16.950;2023-11-21T14:11:30;5.93;;;4.38;;
8552;SDS011;73833;51.014;16.950;2023-11-21T14:13:55;4.55;;;4.15;;
8552;SDS011;73833;51.014;16.950;2023-11-21T14:16:21;4.82;;;4.32;;
8552;SDS011;73833;51.014;16.950;2023-11-21T14:18:47;5.72;;;4.18;;
8552;SDS011;73833;51.014;16.950;2023-11-21T14:21:26;5.30;;;4.35;;
8552;SDS011;73833;51.014;16.950;2023-11-21T14:23:52;5.03;;;4.55;;
8552;SDS011;73833;51.014;16.950;2023-11-21T14:26:19;4.70;;;3.90;;
8552;SDS011;73833;51.014;16.950;2023-11-21T14:28:45;5.65;;;3.95;;
8552;SDS011;73833;51.014;16.950;2023-11-21T14:31:13;4.53;;;4.13;;
8552;SDS011;73833;51.014;16.950;2023-11-21T14:33:39;4.15;;;3.80;;
8552;SDS011;73833;51.014;16.950;2023-11-21T14:36:04;4.15;;;3.75;;
8552;SDS011;73833;51.014;16.950;2023-11-21T14:38:29;4.25;;;3.85;;
8552;SDS011;73833;51.014;16.950;2023-11-21T14:40:55;6.20;;;3.80;;
8552;SDS011;73833;51.014;16.950;2023-11-21T14:43:20;3.97;;;3.60;;
8552;SDS011;73833;51.014;16.950;2023-11-21T14:45:45;4.28;;;3.88;;
8552;SDS011;73833;51.014;16.950;2023-11-21T14:48:11;4.47;;;4.07;;
8552;SDS011;73833;51.014;16.950;2023-11-21T14:50:51;3.83;;;3.53;;
8552;SDS011;73833;51.014;16.950;2023-11-21T14:53:36;4.18;;;3.83;;
8552;SDS011;73833;51.014;16.950;2023-11-21T14:56:08;5.55;;;4.30;;